Time;durP1;ratioP1;P1;durP2;ratioP2;P2;SDS_P1;SDS_P2;PMS_P1;PMS_P2;Temp;Humidity;BMP_temperature;BMP_pressure;BME280_temperature;BME280_humidity;BME280_pressure;Samples;Min_cycle;Max_cycle;Signal;HPM_P1;HPM_P2
2023/12/17 00:00:15;;;;;;;;;;;;;;;4.44;76.71;103082.25;4163180;28;19921;-66
2023/12/17 00:02:19;;;;;;;;;;;;;;;4.41;77.10;103075.22;4161173;28;20480;-66
2023/12/17 00:04:22;;;;;;;;;;;;;;;4.46;77.02;103086.78;4144566;28;20307;-66
2023/12/17 00:06:26;;;;;;;;;;;;;;;4.61;76.09;103088.81;4158828;28;19932;-66
2023/12/17 00:08:29;;;;;;;;;;;;;;;4.46;76.01;103079.03;4161722;28;20270;-66
2023/12/17 00:10:31;;;;;;;;;;;;;;;4.30;76.45;103069.16;4161389;28;20669;-66
2023/12/17 00:12:34;;;;;;;;;;;;;;;4.23;76.89;103071.13;4158879;28;19964;-66
2023/12/17 00:14:37;;;;;;;;;;;;;;;4.26;76.63;103074.84;4160528;28;19955;-66
2023/12/17 00:16:39;;;;;;;;;;;;;;;4.26;76.72;103063.66;4160415;28;20297;-66
2023/12/17 00:18:42;;;;;;;;;;;;;;;4.24;77.16;103060.94;4163379;28;20355;-66
2023/12/17 00:20:45;;;;;;;;;;;;;;;4.23;76.94;103058.25;4139471;28;20029;-66
2023/12/17 00:22:49;;;;;;;;;;;;;;;4.23;77.26;103066.88;4156923;28;19920;-66
2023/12/17 00:24:51;;;;;;;;;;;;;;;4.23;77.22;103068.53;4157135;28;19921;-66
2023/12/17 00:26:56;;;;;;;;;;;;;;;4.24;77.04;103062.63;4154584;28;19972;-66
2023/12/17 00:28:59;;;;;;;;;;;;;;;4.24;76.91;103060.94;4162842;28;19920;-66
2023/12/17 00:31:02;;;;;;;;;;;;;;;4.23;76.62;103059.13;4161069;28;19960;-66
2023/12/17 00:33:05;;;;;;;;;;;;;;;4.25;76.62;103056.69;4159990;28;19921;-66
2023/12/17 00:35:08;;;;;;;;;;;;;;;4.25;76.87;103038.66;4158351;28;19925;-66
2023/12/17 00:37:11;;;;;;;;;;;;;;;4.19;76.55;103037.41;4158937;28;19925;-66
2023/12/17 00:39:15;;;;;;;;;;;;;;;4.16;77.02;103042.31;4159515;28;19929;-66
2023/12/17 00:41:17;;;;;;;;;;;;;;;4.14;77.26;103033.53;4159032;28;20373;-66
2023/12/17 00:43:19;;;;;;;;;;;;;;;4.16;77.47;103037.16;4155068;28;20372;-67
2023/12/17 00:45:22;;;;;;;;;;;;;;;4.18;77.64;103035.59;4160971;28;19928;-66
2023/12/17 00:47:25;;;;;;;;;;;;;;;4.17;77.77;103038.94;4162160;28;20395;-66
2023/12/17 00:49:28;;;;;;;;;;;;;;;4.20;77.59;103033.13;4160606;28;19932;-66
2023/12/17 00:51:30;;;;;;;;;;;;;;;4.22;77.47;103031.59;4161268;28;19921;-66
2023/12/17 00:53:32;;;;;;;;;;;;;;;4.18;77.42;103033.00;4160725;28;19968;-65
2023/12/17 00:55:36;;;;;;;;;;;;;;;4.15;77.50;103037.03;4157780;28;19924;-66
2023/12/17 00:57:39;;;;;;;;;;;;;;;4.17;77.59;103035.47;4161258;28;19921;-66
2023/12/17 00:59:42;;;;;;;;;;;;;;;4.19;77.48;103034.81;4156046;28;19956;-66
2023/12/17 01:01:45;;;;;;;;;;;;;;;4.18;77.03;103040.75;4162111;28;19921;-66
2023/12/17 01:03:47;;;;;;;;;;;;;;;4.11;76.99;103042.69;4160470;28;19921;-65
2023/12/17 01:05:50;;;;;;;;;;;;;;;4.11;77.33;103041.00;4158442;28;19964;-66
2023/12/17 01:07:52;;;;;;;;;;;;;;;4.10;77.29;103041.78;4157797;28;19960;-65
2023/12/17 01:09:54;;;;;;;;;;;;;;;4.06;77.71;103042.31;4158850;28;19920;-66
2023/12/17 01:12:02;;;;;;;;;;;;;;;4.05;77.73;103037.94;4163771;28;19932;-66
2023/12/17 01:14:05;;;;;;;;;;;;;;;4.08;77.67;103043.34;4171810;28;20426;-66
2023/12/17 01:16:08;;;;;;;;;;;;;;;4.07;77.68;103033.81;4159028;28;19957;-66
2023/12/17 01:18:11;;;;;;;;;;;;;;;4.06;77.41;103043.97;4159650;28;19975;-66
2023/12/17 01:20:14;;;;;;;;;;;;;;;4.06;77.40;103047.47;4159679;28;19936;-66
2023/12/17 01:22:17;;;;;;;;;;;;;;;4.06;76.99;103047.47;4159544;28;19920;-66
2023/12/17 01:24:20;;;;;;;;;;;;;;;4.05;77.07;103050.81;4159280;28;19921;-66
2023/12/17 01:26:23;;;;;;;;;;;;;;;4.05;76.95;103058.53;4159021;28;19927;-66
2023/12/17 01:28:27;;;;;;;;;;;;;;;4.04;76.80;103053.25;4159599;28;20368;-66
2023/12/17 01:30:30;;;;;;;;;;;;;;;4.01;76.97;103052.22;4157334;28;19929;-66
2023/12/17 01:32:33;;;;;;;;;;;;;;;3.99;76.92;103050.31;4160177;28;19964;-66
2023/12/17 01:34:35;;;;;;;;;;;;;;;4.01;77.15;103054.78;4160760;28;19967;-66
2023/12/17 01:36:38;;;;;;;;;;;;;;;3.98;77.46;103056.22;4158163;28;19920;-66
2023/12/17 01:38:41;;;;;;;;;;;;;;;3.98;76.97;103061.38;4160754;28;19987;-66
2023/12/17 01:40:44;;;;;;;;;;;;;;;4.01;76.98;103067.66;4160368;28;19925;-66
2023/12/17 01:42:47;;;;;;;;;;;;;;;3.99;76.57;103068.31;4160450;28;19975;-66
2023/12/17 01:44:51;;;;;;;;;;;;;;;3.97;77.09;103064.69;4158951;28;20024;-66
2023/12/17 01:46:53;;;;;;;;;;;;;;;3.96;77.12;103068.97;4160278;28;19924;-66
2023/12/17 01:48:56;;;;;;;;;;;;;;;3.95;77.38;103071.41;4141685;28;19930;-66
2023/12/17 01:51:00;;;;;;;;;;;;;;;3.93;77.32;103063.56;4154380;28;20335;-66
2023/12/17 01:53:03;;;;;;;;;;;;;;;3.89;77.50;103061.50;4160216;28;19928;-66
2023/12/17 01:55:06;;;;;;;;;;;;;;;3.87;77.63;103067.28;4160400;28;20273;-66
2023/12/17 01:57:09;;;;;;;;;;;;;;;3.87;77.62;103067.28;4158836;28;19927;-66
2023/12/17 01:59:14;;;;;;;;;;;;;;;3.90;77.39;103072.69;4160383;28;19929;-66
2023/12/17 02:01:18;;;;;;;;;;;;;;;3.89;77.03;103065.75;4159541;28;19975;-66
2023/12/17 02:03:21;;;;;;;;;;;;;;;3.90;77.60;103057.25;4160493;28;19947;-66
2023/12/17 02:05:38;;;;;;;;;;;;;;;3.87;77.92;103049.28;4157862;28;19920;-66
2023/12/17 02:07:40;;;;;;;;;;;;;;;3.84;77.66;103058.56;4159111;28;20361;-66
2023/12/17 02:09:43;;;;;;;;;;;;;;;3.82;77.32;103043.75;4158101;28;19986;-66
2023/12/17 02:11:46;;;;;;;;;;;;;;;3.79;77.97;103046.97;4159198;28;19921;-66
2023/12/17 02:13:48;;;;;;;;;;;;;;;3.81;77.97;103048.00;4161093;28;19979;-66
2023/12/17 02:15:51;;;;;;;;;;;;;;;3.80;78.27;103043.63;4157912;28;20024;-66
2023/12/17 02:17:55;;;;;;;;;;;;;;;3.83;78.45;103055.84;4159991;28;20391;-66
2023/12/17 02:19:57;;;;;;;;;;;;;;;3.87;78.12;103060.50;4159876;28;19921;-66
2023/12/17 02:22:00;;;;;;;;;;;;;;;3.90;78.02;103063.31;4159620;28;19932;-66
2023/12/17 02:24:04;;;;;;;;;;;;;;;3.87;77.91;103057.00;4158533;28;20673;-65
2023/12/17 02:26:10;;;;;;;;;;;;;;;3.86;77.83;103061.25;4156557;28;19944;-65
2023/12/17 02:28:13;;;;;;;;;;;;;;;3.86;77.87;103057.78;4160121;28;20376;-65
2023/12/17 02:30:16;;;;;;;;;;;;;;;3.86;77.59;103055.22;4158282;28;20361;-65
2023/12/17 02:32:20;;;;;;;;;;;;;;;3.83;77.68;103045.56;4156852;28;19925;-65
2023/12/17 02:34:23;;;;;;;;;;;;;;;3.87;77.77;103046.69;4159031;28;19957;-66
2023/12/17 02:36:26;;;;;;;;;;;;;;;3.83;78.00;103048.13;4161191;28;20391;-66
2023/12/17 02:38:30;;;;;;;;;;;;;;;3.81;78.07;103040.28;4163045;28;19921;-65
2023/12/17 02:40:33;;;;;;;;;;;;;;;3.79;78.17;103040.91;4153539;28;19928;-65
2023/12/17 02:42:36;;;;;;;;;;;;;;;3.82;78.18;103042.06;4156147;28;20361;-65
2023/12/17 02:44:39;;;;;;;;;;;;;;;3.85;78.17;103038.84;4157864;28;19921;-65
2023/12/17 02:46:41;;;;;;;;;;;;;;;3.86;78.11;103039.78;4158804;28;19927;-65
2023/12/17 02:48:44;;;;;;;;;;;;;;;3.86;78.42;103039.78;4157815;28;19964;-65
2023/12/17 02:50:47;;;;;;;;;;;;;;;3.85;78.52;103044.00;4157105;28;19924;-65
2023/12/17 02:52:50;;;;;;;;;;;;;;;3.88;78.26;103044.25;4160288;28;20004;-65
2023/12/17 02:54:52;;;;;;;;;;;;;;;3.90;78.27;103039.22;4158458;28;19921;-65
2023/12/17 02:56:56;;;;;;;;;;;;;;;3.90;78.06;103036.66;4158133;28;20011;-66
2023/12/17 02:58:58;;;;;;;;;;;;;;;3.91;78.41;103048.75;4159792;28;20396;-66
2023/12/17 03:01:01;;;;;;;;;;;;;;;3.90;78.34;103053.03;4174735;28;19959;-66
2023/12/17 03:03:04;;;;;;;;;;;;;;;3.92;77.72;103048.00;4159262;28;19936;-65
2023/12/17 03:05:07;;;;;;;;;;;;;;;3.89;77.81;103051.22;4159317;28;20033;-65
2023/12/17 03:07:10;;;;;;;;;;;;;;;3.87;77.93;103054.41;4160418;28;20043;-66
2023/12/17 03:09:13;;;;;;;;;;;;;;;3.84;77.47;103053.41;4156735;28;20032;-66
2023/12/17 03:11:16;;;;;;;;;;;;;;;3.88;77.41;103056.22;4157729;28;19936;-65
2023/12/17 03:13:20;;;;;;;;;;;;;;;3.83;77.41;103051.59;4159416;28;19921;-65
2023/12/17 03:15:22;;;;;;;;;;;;;;;3.82;77.81;103036.03;4158165;28;19921;-65
2023/12/17 03:17:25;;;;;;;;;;;;;;;3.82;77.44;103034.34;4159570;28;20376;-65
2023/12/17 03:19:28;;;;;;;;;;;;;;;3.83;77.21;103036.16;4160618;28;20399;-65
2023/12/17 03:21:31;;;;;;;;;;;;;;;3.81;77.38;103031.66;4143643;28;19964;-65
2023/12/17 03:23:33;;;;;;;;;;;;;;;3.80;77.85;103033.34;4158245;28;19921;-65
2023/12/17 03:25:36;;;;;;;;;;;;;;;3.77;77.32;103025.38;4178662;28;19943;-65
2023/12/17 03:27:39;;;;;;;;;;;;;;;3.78;78.06;103018.53;4161473;28;19975;-65
2023/12/17 03:29:44;;;;;;;;;;;;;;;3.75;77.75;103021.78;4163305;28;20422;-65
2023/12/17 03:31:47;;;;;;;;;;;;;;;3.75;78.11;103015.72;4161656;28;19921;-65
2023/12/17 03:33:48;;;;;;;;;;;;;;;3.77;78.08;103021.91;4162596;28;19921;-65
2023/12/17 03:35:52;;;;;;;;;;;;;;;3.83;77.58;103014.69;4163799;28;21171;-65
2023/12/17 03:37:55;;;;;;;;;;;;;;;3.82;77.92;103013.75;4154606;28;19925;-65
2023/12/17 03:39:57;;;;;;;;;;;;;;;3.80;77.94;103010.19;4161891;28;19921;-65
2023/12/17 03:42:00;;;;;;;;;;;;;;;3.84;78.47;103008.75;4160246;28;19927;-65
2023/12/17 03:44:03;;;;;;;;;;;;;;;3.86;78.19;102998.59;4162728;28;20012;-65
2023/12/17 03:46:06;;;;;;;;;;;;;;;3.89;78.33;103010.03;4159140;28;19921;-65
2023/12/17 03:48:09;;;;;;;;;;;;;;;3.87;77.74;103005.53;4159642;28;19921;-65
2023/12/17 03:50:12;;;;;;;;;;;;;;;3.86;78.00;102998.59;4163416;28;19940;-65
2023/12/17 03:52:14;;;;;;;;;;;;;;;3.80;77.73;102994.72;4161224;28;19959;-65
2023/12/17 03:54:17;;;;;;;;;;;;;;;3.81;78.33;102995.63;4159997;28;20281;-65
2023/12/17 03:56:22;;;;;;;;;;;;;;;3.86;77.93;102994.34;4161115;28;20004;-65
2023/12/17 03:58:26;;;;;;;;;;;;;;;3.81;78.16;102986.25;4157689;28;20019;-65
2023/12/17 04:00:29;;;;;;;;;;;;;;;3.83;78.21;102997.56;4161748;28;20395;-65
2023/12/17 04:02:33;;;;;;;;;;;;;;;3.82;77.74;103003.47;4164736;28;19928;-65
2023/12/17 04:04:38;;;;;;;;;;;;;;;3.82;77.60;102992.28;4162053;28;19967;-66
2023/12/17 04:06:41;;;;;;;;;;;;;;;3.80;77.92;102987.03;4161912;28;19921;-65
2023/12/17 04:08:45;;;;;;;;;;;;;;;3.76;77.74;102982.38;4160915;28;19931;-65
2023/12/17 04:10:48;;;;;;;;;;;;;;;3.73;77.58;102989.84;4161953;28;20308;-65
2023/12/17 04:12:50;;;;;;;;;;;;;;;3.73;78.21;102992.44;4161218;28;19925;-65
2023/12/17 04:14:53;;;;;;;;;;;;;;;3.71;78.06;102995.63;4162551;28;20361;-65
2023/12/17 04:16:56;;;;;;;;;;;;;;;3.61;77.52;102997.44;4160511;28;19976;-66
2023/12/17 04:18:59;;;;;;;;;;;;;;;3.57;78.07;103000.53;4161916;28;19975;-66
2023/12/17 04:21:02;;;;;;;;;;;;;;;3.57;77.96;102997.06;4159594;28;19921;-65
2023/12/17 04:23:05;;;;;;;;;;;;;;;3.67;78.46;103003.09;4157789;28;19925;-66
2023/12/17 04:25:09;;;;;;;;;;;;;;;3.67;78.25;102997.06;4163612;28;19921;-66
2023/12/17 04:27:11;;;;;;;;;;;;;;;3.67;78.28;102997.06;4158778;28;19944;-66
2023/12/17 04:29:14;;;;;;;;;;;;;;;3.66;77.69;102991.03;4159437;28;20019;-66
2023/12/17 04:31:17;;;;;;;;;;;;;;;3.66;77.74;102992.69;4160941;28;20289;-67
2023/12/17 04:33:20;;;;;;;;;;;;;;;3.64;78.29;102991.69;4162282;28;19975;-66
2023/12/17 04:35:25;;;;;;;;;;;;;;;3.62;77.98;102988.97;4158148;28;20657;-66
2023/12/17 04:37:28;;;;;;;;;;;;;;;3.59;77.85;102982.66;4162663;28;19921;-66
2023/12/17 04:39:31;;;;;;;;;;;;;;;3.68;77.70;102983.44;4161810;28;20317;-66
2023/12/17 04:41:34;;;;;;;;;;;;;;;3.65;77.59;102986.66;4161687;28;20015;-66
2023/12/17 04:43:37;;;;;;;;;;;;;;;3.62;77.95;102993.19;4160359;28;19975;-66
2023/12/17 04:45:39;;;;;;;;;;;;;;;3.62;77.96;102993.19;4162155;28;20304;-66
2023/12/17 04:47:42;;;;;;;;;;;;;;;3.61;77.88;102994.88;4160440;28;19956;-66
2023/12/17 04:49:45;;;;;;;;;;;;;;;3.63;77.52;102995.91;4161167;28;19928;-66
2023/12/17 04:51:49;;;;;;;;;;;;;;;3.58;77.35;102994.63;4162254;28;19924;-66
2023/12/17 04:53:53;;;;;;;;;;;;;;;3.56;77.26;102997.84;4163057;28;20024;-65
2023/12/17 04:55:56;;;;;;;;;;;;;;;3.54;77.54;102991.69;4159747;28;20015;-66
2023/12/17 04:57:59;;;;;;;;;;;;;;;3.54;77.29;102986.53;4155784;28;19921;-67
2023/12/17 05:00:03;;;;;;;;;;;;;;;3.53;77.21;102992.44;4161062;28;19925;-65
2023/12/17 05:02:06;;;;;;;;;;;;;;;3.51;77.82;102988.84;4161855;28;19924;-65
2023/12/17 05:04:09;;;;;;;;;;;;;;;3.52;77.18;102993.19;4161602;28;19933;-66
2023/12/17 05:06:12;;;;;;;;;;;;;;;3.51;76.98;102994.00;4160840;28;19927;-66
2023/12/17 05:08:15;;;;;;;;;;;;;;;3.50;77.42;102995.66;4160665;28;20287;-65
2023/12/17 05:10:18;;;;;;;;;;;;;;;3.49;77.52;102994.75;4162592;28;19943;-65
2023/12/17 05:12:21;;;;;;;;;;;;;;;3.52;77.36;103008.63;4161224;28;19964;-65
2023/12/17 05:14:22;;;;;;;;;;;;;;;3.49;77.29;103004.16;4159038;28;19932;-66
2023/12/17 05:16:25;;;;;;;;;;;;;;;3.55;76.99;103003.75;4160501;28;19928;-66
2023/12/17 05:18:28;;;;;;;;;;;;;;;3.46;77.01;102999.66;4160472;28;19987;-65
2023/12/17 05:20:31;;;;;;;;;;;;;;;3.42;77.35;103010.44;4160741;28;19932;-65
2023/12/17 05:22:34;;;;;;;;;;;;;;;3.36;77.38;102999.66;4160341;28;20351;-65
2023/12/17 05:24:38;;;;;;;;;;;;;;;3.38;77.97;103004.91;4159834;28;19925;-65
2023/12/17 05:26:40;;;;;;;;;;;;;;;3.35;77.88;102997.84;4164158;28;19921;-65
2023/12/17 05:28:43;;;;;;;;;;;;;;;3.33;78.17;102991.69;4163025;28;19975;-65
2023/12/17 05:30:46;;;;;;;;;;;;;;;3.32;78.21;102988.19;4160468;28;19929;-65
2023/12/17 05:32:49;;;;;;;;;;;;;;;3.38;77.49;102981.78;4160104;28;20003;-65
2023/12/17 05:34:52;;;;;;;;;;;;;;;3.37;78.17;102986.00;4162312;28;19921;-65
2023/12/17 05:36:54;;;;;;;;;;;;;;;3.37;78.03;102987.69;4160503;28;19921;-65
2023/12/17 05:38:57;;;;;;;;;;;;;;;3.37;77.79;102982.53;4159633;28;19925;-65
2023/12/17 05:41:01;;;;;;;;;;;;;;;3.38;77.66;102995.53;4161952;28;19927;-65
2023/12/17 05:43:04;;;;;;;;;;;;;;;3.38;77.70;102992.94;4158107;28;19975;-65
2023/12/17 05:45:08;;;;;;;;;;;;;;;3.37;78.22;102990.25;4157856;28;20389;-66
2023/12/17 05:47:10;;;;;;;;;;;;;;;3.39;77.67;102984.47;4160863;28;20343;-65
2023/12/17 05:49:13;;;;;;;;;;;;;;;3.41;78.31;102982.91;4157780;28;20004;-65
2023/12/17 05:51:16;;;;;;;;;;;;;;;3.39;77.95;102984.47;4162395;28;19940;-65
2023/12/17 05:53:18;;;;;;;;;;;;;;;3.39;78.04;102983.56;4156319;28;20392;-65
2023/12/17 05:55:24;;;;;;;;;;;;;;;3.42;77.40;102989.88;4156069;28;19924;-65
2023/12/17 05:57:28;;;;;;;;;;;;;;;3.39;77.55;102989.63;4159727;28;19964;-65
2023/12/17 05:59:30;;;;;;;;;;;;;;;3.54;76.81;102987.41;4158589;28;19921;-65
2023/12/17 06:01:34;;;;;;;;;;;;;;;3.40;76.86;102985.38;4158876;28;19927;-65
2023/12/17 06:03:37;;;;;;;;;;;;;;;3.37;76.97;102987.69;4158875;28;19921;-65
2023/12/17 06:05:41;;;;;;;;;;;;;;;3.32;77.22;102987.28;4160871;28;19937;-66
2023/12/17 06:07:44;;;;;;;;;;;;;;;3.29;77.62;102994.75;4159039;28;19936;-66
2023/12/17 06:09:47;;;;;;;;;;;;;;;3.30;78.00;102999.09;4161202;28;20431;-65
2023/12/17 06:11:50;;;;;;;;;;;;;;;3.28;77.38;102992.94;4160303;28;20007;-65
2023/12/17 06:13:54;;;;;;;;;;;;;;;3.25;77.82;103000.41;4160499;28;19929;-66
2023/12/17 06:15:57;;;;;;;;;;;;;;;3.24;78.17;102998.59;4159197;28;21463;-66
2023/12/17 06:18:00;;;;;;;;;;;;;;;3.24;77.72;103003.72;4159669;28;20028;-65
2023/12/17 06:20:02;;;;;;;;;;;;;;;3.24;78.11;103003.72;4163352;28;19921;-65
2023/12/17 06:22:05;;;;;;;;;;;;;;;3.24;77.69;103008.88;4160802;28;19927;-65
2023/12/17 06:24:08;;;;;;;;;;;;;;;3.24;77.91;103004.66;4158740;28;19975;-65
2023/12/17 06:26:10;;;;;;;;;;;;;;;3.26;77.96;103008.25;4159220;28;19931;-65
2023/12/17 06:28:12;;;;;;;;;;;;;;;3.27;78.05;103009.13;4158109;28;20023;-65
2023/12/17 06:30:18;;;;;;;;;;;;;;;3.30;77.88;103009.38;4157692;28;19925;-65
2023/12/17 06:32:21;;;;;;;;;;;;;;;3.27;77.80;103002.34;4156170;28;19952;-65
2023/12/17 06:34:25;;;;;;;;;;;;;;;3.31;77.17;103003.47;4160403;28;19988;-65
2023/12/17 06:36:28;;;;;;;;;;;;;;;3.27;77.99;102992.06;4158947;28;20012;-65
2023/12/17 06:38:31;;;;;;;;;;;;;;;3.29;78.14;102992.19;4160814;28;19925;-65
2023/12/17 06:40:33;;;;;;;;;;;;;;;3.35;78.04;102995.25;4161262;28;20003;-65
2023/12/17 06:42:35;;;;;;;;;;;;;;;3.30;77.86;102999.09;4158982;28;20304;-65
2023/12/17 06:44:38;;;;;;;;;;;;;;;3.30;78.33;102999.09;4157720;28;19932;-65
2023/12/17 06:46:42;;;;;;;;;;;;;;;3.31;77.29;102999.25;4155052;28;20371;-65
2023/12/17 06:48:48;;;;;;;;;;;;;;;3.26;77.74;103007.34;4157373;28;19929;-66
2023/12/17 06:50:51;;;;;;;;;;;;;;;3.31;77.48;103013.75;4158549;28;19983;-65
2023/12/17 06:52:53;;;;;;;;;;;;;;;3.23;78.16;103013.13;4157791;28;19929;-65
2023/12/17 06:54:56;;;;;;;;;;;;;;;3.22;78.42;103007.84;4156181;28;19978;-65
2023/12/17 06:57:00;;;;;;;;;;;;;;;3.26;78.07;103005.66;4154062;28;20518;-65
2023/12/17 06:59:03;;;;;;;;;;;;;;;3.22;78.58;103006.16;4161779;28;20664;-65
2023/12/17 07:01:06;;;;;;;;;;;;;;;3.22;78.05;103006.16;4157346;28;20380;-65
2023/12/17 07:03:11;;;;;;;;;;;;;;;3.23;78.02;103002.84;4160803;28;19936;-65
2023/12/17 07:05:14;;;;;;;;;;;;;;;3.25;78.25;103008.09;4163549;28;19952;-65
2023/12/17 07:07:17;;;;;;;;;;;;;;;3.23;78.34;102997.69;4161999;28;20298;-65
2023/12/17 07:09:20;;;;;;;;;;;;;;;3.25;78.46;103000.41;4160150;28;20348;-65
2023/12/17 07:11:22;;;;;;;;;;;;;;;3.27;78.24;102993.69;4159598;28;20360;-66
2023/12/17 07:13:25;;;;;;;;;;;;;;;3.29;78.60;102995.63;4159089;28;19921;-65
2023/12/17 07:15:28;;;;;;;;;;;;;;;3.31;78.18;102995.78;4158139;28;19927;-65
2023/12/17 07:17:31;;;;;;;;;;;;;;;3.33;77.64;103004.53;4158354;28;19921;-66
2023/12/17 07:19:35;;;;;;;;;;;;;;;3.35;77.31;102999.50;4163148;28;20008;-65
2023/12/17 07:21:40;;;;;;;;;;;;;;;3.35;77.40;103007.22;4161246;28;19921;-66
2023/12/17 07:23:43;;;;;;;;;;;;;;;3.23;77.39;103005.41;4157970;28;19958;-66
2023/12/17 07:25:46;;;;;;;;;;;;;;;3.25;77.29;103003.84;4162085;28;19925;-66
2023/12/17 07:27:48;;;;;;;;;;;;;;;3.16;78.32;103002.19;4162200;28;19924;-66
2023/12/17 07:29:54;;;;;;;;;;;;;;;3.20;78.58;103001.66;4163586;28;20020;-66
2023/12/17 07:31:57;;;;;;;;;;;;;;;3.19;78.14;102995.63;4159886;28;19928;-66
2023/12/17 07:34:00;;;;;;;;;;;;;;;3.18;78.76;102995.50;4162367;28;20372;-66
2023/12/17 07:36:05;;;;;;;;;;;;;;;3.20;78.48;102993.94;4162263;28;20348;-66
2023/12/17 07:38:08;;;;;;;;;;;;;;;3.17;77.83;102998.84;4162574;28;19925;-66
2023/12/17 07:40:11;;;;;;;;;;;;;;;3.12;78.72;102994.19;4160468;28;20399;-66
2023/12/17 07:42:14;;;;;;;;;;;;;;;3.14;78.69;102995.25;4160702;28;19933;-66
2023/12/17 07:44:17;;;;;;;;;;;;;;;3.15;78.94;102998.69;4162156;28;19963;-66
2023/12/17 07:46:19;;;;;;;;;;;;;;;3.13;78.92;102995.13;4156464;28;19928;-66
2023/12/17 07:48:22;;;;;;;;;;;;;;;3.15;78.66;102991.00;4160969;28;19975;-66
2023/12/17 07:50:25;;;;;;;;;;;;;;;3.19;78.69;102994.75;4164337;28;19971;-66
2023/12/17 07:52:29;;;;;;;;;;;;;;;3.25;78.75;102991.00;4161698;28;20017;-66
2023/12/17 07:54:33;;;;;;;;;;;;;;;3.23;78.63;102992.56;4162098;28;20396;-65
2023/12/17 07:56:35;;;;;;;;;;;;;;;3.28;78.62;102987.81;4157582;28;20091;-65
2023/12/17 07:58:37;;;;;;;;;;;;;;;3.30;78.31;102991.38;4159845;28;20003;-66
2023/12/17 08:00:40;;;;;;;;;;;;;;;3.28;78.96;102996.41;4161656;28;19929;-66
2023/12/17 08:02:42;;;;;;;;;;;;;;;3.26;78.68;102990.25;4159777;28;19928;-66
2023/12/17 08:04:45;;;;;;;;;;;;;;;3.36;78.30;102991.00;4161787;28;19928;-66
2023/12/17 08:06:46;;;;;;;;;;;;;;;3.29;78.74;102992.19;4161579;28;19920;-66
2023/12/17 08:08:51;;;;;;;;;;;;;;;3.32;78.95;102993.31;4160748;28;19932;-66
2023/12/17 08:10:54;;;;;;;;;;;;;;;3.37;79.46;102986.00;4160828;28;20348;-66
2023/12/17 08:12:56;;;;;;;;;;;;;;;3.40;78.46;102990.50;4162364;28;19932;-66
2023/12/17 08:14:59;;;;;;;;;;;;;;;3.43;78.03;102981.41;4157514;28;19931;-66
2023/12/17 08:17:02;;;;;;;;;;;;;;;3.46;78.25;102985.88;4161011;28;19964;-66
2023/12/17 08:19:05;;;;;;;;;;;;;;;3.40;78.36;102987.94;4158801;28;20324;-65
2023/12/17 08:21:08;;;;;;;;;;;;;;;3.39;78.68;102994.75;4162235;28;19920;-65
2023/12/17 08:23:11;;;;;;;;;;;;;;;3.43;78.75;102990.75;4160939;28;19925;-65
2023/12/17 08:25:15;;;;;;;;;;;;;;;3.22;78.47;102995.88;4162019;28;19927;-65
2023/12/17 08:27:18;;;;;;;;;;;;;;;3.23;78.56;102996.81;4160231;28;20502;-66
2023/12/17 08:29:21;;;;;;;;;;;;;;;3.24;79.11;102996.00;4162527;28;19925;-66
2023/12/17 08:31:22;;;;;;;;;;;;;;;3.28;78.84;102992.94;4160245;28;20020;-66
2023/12/17 08:33:25;;;;;;;;;;;;;;;3.30;79.07;102993.97;4160620;28;20300;-66
2023/12/17 08:35:29;;;;;;;;;;;;;;;3.33;79.08;102996.81;4161660;28;19972;-65
2023/12/17 08:37:31;;;;;;;;;;;;;;;3.36;78.57;102998.72;4161759;28;19921;-65
2023/12/17 08:39:34;;;;;;;;;;;;;;;3.37;78.74;102991.13;4158767;28;19959;-66
2023/12/17 08:41:37;;;;;;;;;;;;;;;3.49;78.32;102989.63;4155425;28;20007;-66
2023/12/17 08:43:40;;;;;;;;;;;;;;;3.54;78.89;103000.28;4175074;28;19962;-66
2023/12/17 08:45:42;;;;;;;;;;;;;;;3.48;78.54;103000.66;4156359;28;19921;-65
2023/12/17 08:47:45;;;;;;;;;;;;;;;3.52;79.26;103006.06;4175707;28;19970;-65
2023/12/17 08:49:48;;;;;;;;;;;;;;;3.59;78.83;103004.16;4159624;28;19976;-66
2023/12/17 08:51:51;;;;;;;;;;;;;;;3.65;78.98;103011.47;4159987;28;19925;-65
2023/12/17 08:53:54;;;;;;;;;;;;;;;3.83;78.39;103007.84;4160062;28;19936;-66
2023/12/17 08:55:56;;;;;;;;;;;;;;;3.69;77.62;103004.91;4159920;28;19951;-65
2023/12/17 08:58:01;;;;;;;;;;;;;;;3.59;77.77;103008.38;4159782;28;20024;-66
2023/12/17 09:00:04;;;;;;;;;;;;;;;3.54;78.24;103013.13;4159953;28;19921;-66
2023/12/17 09:02:07;;;;;;;;;;;;;;;3.58;78.74;103006.59;4160841;28;19924;-65
2023/12/17 09:04:10;;;;;;;;;;;;;;;3.67;78.49;103012.50;4158875;28;19920;-65
2023/12/17 09:06:13;;;;;;;;;;;;;;;4.26;81.09;103009.56;4156144;28;19921;-64
2023/12/17 09:08:16;;;;;;;;;;;;;;;4.51;80.22;103009.88;4159239;28;20395;-64
2023/12/17 09:10:23;;;;;;;;;;;;;;;4.40;77.95;103011.59;4161272;28;19924;-63
2023/12/17 09:12:25;;;;;;;;;;;;;;;4.45;77.29;103009.38;4158314;28;19929;-65
2023/12/17 09:14:30;;;;;;;;;;;;;;;4.27;76.28;103001.09;4154899;28;20365;-64
2023/12/17 09:16:32;;;;;;;;;;;;;;;4.17;76.55;103002.88;4160690;28;19990;-65
2023/12/17 09:18:35;;;;;;;;;;;;;;;4.05;77.01;103007.06;4161380;28;19921;-64
2023/12/17 09:20:38;;;;;;;;;;;;;;;4.04;76.82;103001.78;4154069;28;20028;-64
2023/12/17 09:22:41;;;;;;;;;;;;;;;4.04;76.79;103000.09;4155789;28;19921;-64
2023/12/17 09:24:44;;;;;;;;;;;;;;;3.95;76.61;103007.97;4155745;28;19939;-65
2023/12/17 09:26:50;;;;;;;;;;;;;;;3.90;77.09;103004.13;4154425;28;19920;-65
2023/12/17 09:28:53;;;;;;;;;;;;;;;4.00;77.31;103011.81;4157451;28;20656;-68
2023/12/17 09:30:57;;;;;;;;;;;;;;;4.04;77.13;103009.50;4159745;28;19964;-67
2023/12/17 09:32:59;;;;;;;;;;;;;;;4.03;76.82;103013.75;4158463;28;19921;-68
2023/12/17 09:35:02;;;;;;;;;;;;;;;3.92;76.96;103002.56;4161129;28;19960;-67
2023/12/17 09:37:05;;;;;;;;;;;;;;;3.95;77.30;103007.06;4134716;28;19928;-66
2023/12/17 09:39:08;;;;;;;;;;;;;;;3.93;77.30;103017.25;4159254;28;19944;-66
2023/12/17 09:41:11;;;;;;;;;;;;;;;4.06;77.20;103018.22;4161495;28;19921;-68
2023/12/17 09:43:13;;;;;;;;;;;;;;;4.04;76.91;103010.38;4161126;28;20402;-67
2023/12/17 09:45:16;;;;;;;;;;;;;;;4.03;76.75;103013.75;4157645;28;20024;-68
2023/12/17 09:47:21;;;;;;;;;;;;;;;4.08;77.23;103012.44;4160797;28;20011;-65
2023/12/17 09:49:24;;;;;;;;;;;;;;;4.10;76.84;103003.16;4161187;28;19921;-67
2023/12/17 09:51:28;;;;;;;;;;;;;;;4.15;77.03;103001.88;4160558;28;20344;-68
2023/12/17 09:53:31;;;;;;;;;;;;;;;4.22;76.68;103000.72;4161560;28;19972;-68
2023/12/17 09:55:34;;;;;;;;;;;;;;;4.18;76.58;103004.69;4159468;28;19921;-64
2023/12/17 09:57:37;;;;;;;;;;;;;;;4.18;76.79;102999.53;4157013;28;19960;-65
2023/12/17 09:59:39;;;;;;;;;;;;;;;4.19;76.55;102996.22;4160730;28;19967;-65
2023/12/17 10:01:42;;;;;;;;;;;;;;;4.30;76.34;102991.91;4161060;28;20338;-65
2023/12/17 10:03:46;;;;;;;;;;;;;;;4.27;76.24;102988.22;4157739;28;19924;-65
2023/12/17 10:05:50;;;;;;;;;;;;;;;4.32;76.12;102992.03;4149115;23;19975;-65
2023/12/17 10:07:55;;;;;;;;;;;;;;;4.45;76.04;102993.94;4137944;28;19935;-66
2023/12/17 10:10:46;;;;;;;14.88;10.15;;;;;;;4.78;76.85;102995.72;4246589;27;20528;-67
2023/12/17 10:12:51;;;;;;;13.75;10.10;;;;;;;4.83;76.14;102984.09;4223637;28;20134;-64
2023/12/17 10:14:54;;;;;;;14.48;9.45;;;;;;;4.85;75.73;102979.94;4224645;28;20067;-64
2023/12/17 10:16:58;;;;;;;16.90;10.35;;;;;;;4.85;75.27;102979.06;4218824;28;20123;-62
2023/12/17 10:19:01;;;;;;;18.08;10.05;;;;;;;4.84;75.01;102978.13;4223826;27;20051;-64
2023/12/17 10:21:05;;;;;;;15.13;9.32;;;;;;;4.74;75.25;102978.19;4220984;28;21523;-66
2023/12/17 10:23:07;;;;;;;15.57;9.93;;;;;;;4.74;75.23;102975.63;4221274;28;20036;-64
2023/12/17 10:25:23;;;;;;;13.77;8.38;;;;;;;4.74;75.24;102967.91;4219852;28;20044;-64
2023/12/17 10:27:33;;;;;;;13.63;9.05;;;;;;;4.70;75.22;102977.06;4218348;28;20238;-63
2023/12/17 10:29:35;;;;;;;14.13;9.93;;;;;;;4.71;75.19;102965.06;4219180;28;20396;-63
2023/12/17 10:31:38;;;;;;;17.13;10.45;;;;;;;4.76;74.95;102961.19;4222568;27;20420;-66
2023/12/17 10:33:50;;;;;;;16.67;10.43;;;;;;;4.78;74.97;102966.47;4219903;28;20127;-62
2023/12/17 10:35:53;;;;;;;13.40;9.35;;;;;;;4.76;75.01;102960.28;4216922;28;20093;-66
2023/12/17 10:37:59;;;;;;;13.50;9.77;;;;;;;4.80;75.03;102958.06;4234442;27;20047;-66